Time;durP1;ratioP1;P1;durP2;ratioP2;P2;SDS_P1;SDS_P2;PMS_P1;PMS_P2;Temp;Humidity;BMP_temperature;BMP_pressure;BME280_temperature;BME280_humidity;BME280_pressure;Samples;Min_cycle;Max_cycle;Signal;HPM_P1;HPM_P2
2022/09/20 00:01:21;;;;;;;1.40;1.30;;;;;;;7.43;83.79;95429.76;1810021;79;20994;-69
2022/09/20 00:03:51;;;;;;;2.12;1.25;;;;;;;7.44;84.23;95421.02;1810240;79;20969;-69
2022/09/20 00:06:22;;;;;;;1.37;1.27;;;;;;;7.44;84.56;95425.81;1809794;79;20998;-69
2022/09/20 00:08:49;;;;;;;2.03;1.47;;;;;;;7.45;84.21;95419.67;1810296;79;21432;-69
2022/09/20 00:11:22;;;;;;;1.77;1.40;;;;;;;7.51;84.46;95419.63;1809726;79;20994;-69
2022/09/20 00:13:52;;;;;;;1.70;1.10;;;;;;;7.59;84.66;95418.24;1810227;79;21005;-69
2022/09/20 00:16:24;;;;;;;1.87;1.10;;;;;;;7.67;84.40;95419.48;1809809;79;21031;-69
2022/09/20 00:18:53;;;;;;;1.10;1.10;;;;;;;7.73;84.58;95418.09;1809285;79;21001;-69
2022/09/20 00:21:24;;;;;;;1.33;1.17;;;;;;;7.74;84.03;95415.91;1809903;79;20989;-69
2022/09/20 00:23:52;;;;;;;1.20;1.10;;;;;;;7.74;83.97;95423.34;1809834;79;21002;-69
2022/09/20 00:26:19;;;;;;;0.80;0.80;;;;;;;7.75;84.03;95423.75;1809938;79;21053;-69
2022/09/20 00:28:46;;;;;;;1.43;1.20;;;;;;;7.74;83.81;95419.84;1809954;79;21001;-69
2022/09/20 00:31:14;;;;;;;1.67;1.10;;;;;;;7.74;83.89;95419.84;1810008;79;20990;-69
2022/09/20 00:36:26;;;;;;;0.90;0.90;;;;;;;7.68;83.92;95418.58;1809628;79;21061;-69
2022/09/20 00:38:57;;;;;;;1.03;0.93;;;;;;;7.66;84.04;95420.34;1809647;79;21040;-69
2022/09/20 00:41:25;;;;;;;1.63;1.20;;;;;;;7.69;84.03;95420.34;1810063;79;21013;-69
2022/09/20 00:43:53;;;;;;;1.37;1.27;;;;;;;7.68;83.88;95422.52;1809842;79;20997;-69
2022/09/20 00:46:37;;;;;;;1.40;1.00;;;;;;;7.61;83.38;95418.20;1809949;79;21001;-68
2022/09/20 00:49:09;;;;;;;1.33;1.20;;;;;;;7.49;83.61;95417.45;1809592;79;20982;-68
2022/09/20 00:51:40;;;;;;;1.37;0.90;;;;;;;7.49;83.48;95419.22;1809132;79;20993;-69
2022/09/20 00:54:10;;;;;;;1.20;1.10;;;;;;;7.39;83.74;95414.94;1810004;79;21009;-69
2022/09/20 00:56:40;;;;;;;1.43;1.20;;;;;;;7.31;84.80;95411.08;1810223;79;21321;-69
2022/09/20 00:59:26;;;;;;;1.67;1.13;;;;;;;7.39;84.99;95414.94;1809919;79;21381;-69
2022/09/20 01:02:24;;;;;;;2.07;1.20;;;;;;;7.39;84.49;95424.12;1809281;79;21523;-69
2022/09/20 01:04:51;;;;;;;3.27;1.50;;;;;;;7.42;84.33;95415.77;1809735;79;21491;-69
2022/09/20 01:07:21;;;;;;;3.93;1.33;;;;;;;7.43;84.12;95408.75;1809940;79;21137;-69
2022/09/20 01:09:48;;;;;;;2.57;1.37;;;;;;;7.41;84.55;95407.89;1781245;79;21495;-69
2022/09/20 01:12:23;;;;;;;1.60;1.50;;;;;;;7.32;84.45;95404.92;1809937;79;20986;-70
2022/09/20 01:14:51;;;;;;;2.13;1.40;;;;;;;7.23;84.08;95407.63;1781257;79;21006;-69
2022/09/20 01:17:22;;;;;;;1.20;1.10;;;;;;;7.13;84.36;95406.41;1810512;79;20993;-69
2022/09/20 01:20:06;;;;;;;1.60;1.40;;;;;;;6.96;83.90;95410.91;1809748;79;21499;-69
2022/09/20 01:22:50;;;;;;;1.40;1.30;;;;;;;6.83;84.21;95406.62;1809919;79;21022;-69
2022/09/20 01:25:43;;;;;;;1.93;1.30;;;;;;;6.66;84.63;95408.06;1811497;79;21104;-69
2022/09/20 01:28:10;;;;;;;1.30;1.20;;;;;;;6.57;84.99;95410.28;1815844;79;21093;-69
2022/09/20 01:30:47;;;;;;;3.27;1.43;;;;;;;6.47;84.84;95399.43;1816277;79;21041;-69
2022/09/20 01:33:25;;;;;;;1.30;1.13;;;;;;;6.35;84.79;95398.19;1815745;79;21021;-69
2022/09/20 01:35:53;;;;;;;2.70;1.70;;;;;;;6.25;85.34;95400.01;1816104;79;21440;-69
2022/09/20 01:38:47;;;;;;;1.83;1.63;;;;;;;6.23;85.42;95397.83;1816113;79;20994;-69
2022/09/20 01:41:28;;;;;;;5.33;1.82;;;;;;;6.17;85.13;95400.45;1815978;79;20978;-69
2022/09/20 01:44:00;;;;;;;1.60;1.50;;;;;;;6.10;85.44;95402.67;1805961;79;21041;-69
2022/09/20 01:46:33;;;;;;;1.77;1.50;;;;;;;6.08;85.78;95405.31;1814763;79;20985;-69
2022/09/20 01:49:17;;;;;;;5.75;1.60;;;;;;;6.07;85.71;95400.94;1815940;79;21041;-69
2022/09/20 01:52:06;;;;;;;1.47;1.37;;;;;;;6.05;85.75;95406.20;1815890;79;21037;-69
2022/09/20 01:55:13;;;;;;;2.07;1.40;;;;;;;5.98;85.90;95403.17;1815710;79;20999;-69
2022/09/20 01:58:15;;;;;;;3.57;1.53;;;;;;;5.93;86.00;95403.59;1816214;79;20977;-69
2022/09/20 02:01:21;;;;;;;1.60;1.43;;;;;;;5.92;86.12;95409.72;1815853;79;21005;-69
2022/09/20 02:04:14;;;;;;;1.87;1.50;;;;;;;5.92;86.41;95405.80;1816238;79;21001;-69
2022/09/20 02:07:15;;;;;;;1.85;1.52;;;;;;;5.95;86.38;95407.11;1815296;79;21017;-69
2022/09/20 02:09:56;;;;;;;3.20;1.47;;;;;;;5.93;85.57;95406.21;1815630;79;20997;-69
2022/09/20 02:12:49;;;;;;;1.37;1.27;;;;;;;5.89;85.76;95404.91;1816149;79;21472;-69
2022/09/20 02:15:47;;;;;;;1.83;1.70;;;;;;;5.79;85.89;95399.70;1813245;79;21002;-69
2022/09/20 02:18:40;;;;;;;2.70;1.50;;;;;;;5.77;85.72;95396.65;1816096;79;21013;-69
2022/09/20 02:21:15;;;;;;;1.97;1.77;;;;;;;5.75;86.06;95406.28;1816344;79;20990;-69
2022/09/20 02:24:02;;;;;;;2.73;1.80;;;;;;;5.71;86.03;95394.93;1815503;79;20997;-69
2022/09/20 02:26:43;;;;;;;2.30;1.63;;;;;;;5.79;86.55;95397.52;1816128;79;20978;-69
2022/09/20 02:29:33;;;;;;;4.07;1.90;;;;;;;5.86;86.40;95396.19;1815484;79;21489;-69
2022/09/20 02:32:30;;;;;;;2.13;1.80;;;;;;;5.86;85.96;95397.50;1815912;79;20978;-69
2022/09/20 02:35:34;;;;;;;1.87;1.70;;;;;;;5.83;85.46;95397.95;1803318;79;21006;-69
2022/09/20 02:38:46;;;;;;;2.42;2.00;;;;;;;5.72;85.17;95398.41;1816057;79;21089;-69
2022/09/20 02:41:58;;;;;;;1.60;1.50;;;;;;;5.59;85.18;95393.66;1816125;79;20997;-69
2022/09/20 02:44:45;;;;;;;2.83;1.60;;;;;;;5.51;85.41;95400.21;1815612;79;20982;-69
2022/09/20 02:47:38;;;;;;;1.80;1.60;;;;;;;5.43;85.42;95401.54;1815094;79;21519;-69
2022/09/20 02:50:45;;;;;;;2.25;1.50;;;;;;;5.40;85.75;95402.86;1815407;79;20970;-68
2022/09/20 02:53:57;;;;;;;3.27;1.80;;;;;;;5.41;85.80;95399.36;1815974;79;20974;-69
2022/09/20 02:56:41;;;;;;;2.97;1.80;;;;;;;5.41;85.76;95404.59;1816698;79;21005;-69
2022/09/20 02:59:40;;;;;;;2.60;1.90;;;;;;;5.36;85.92;95403.73;1814874;79;20977;-69
2022/09/20 03:02:40;;;;;;;4.23;1.70;;;;;;;5.34;86.00;95405.50;1815791;79;21162;-69
2022/09/20 03:05:14;;;;;;;8.70;1.93;;;;;;;5.30;86.00;95401.58;1816010;79;20950;-69
2022/09/20 03:08:01;;;;;;;2.40;1.50;;;;;;;5.32;85.89;95403.31;1815761;79;21025;-69
2022/09/20 03:11:08;;;;;;;2.20;1.93;;;;;;;5.27;85.45;95401.14;1816159;79;20958;-69
2022/09/20 03:13:55;;;;;;;1.80;1.70;;;;;;;5.27;85.87;95410.30;1816333;79;20993;-69
2022/09/20 03:16:48;;;;;;;2.67;1.77;;;;;;;5.35;86.21;95407.23;1816093;79;20966;-69
2022/09/20 03:19:45;;;;;;;3.37;1.70;;;;;;;5.35;85.67;95414.22;1816100;79;21010;-69
2022/09/20 03:22:20;;;;;;;2.30;1.60;;;;;;;5.37;86.20;95413.34;1799519;79;21005;-69
2022/09/20 03:24:55;;;;;;;3.97;1.90;;;;;;;5.45;86.38;95409.40;1816009;79;20982;-69
2022/09/20 03:27:42;;;;;;;3.23;1.90;;;;;;;5.51;86.17;95417.22;1813477;79;20982;-69
2022/09/20 03:30:33;;;;;;;2.37;1.53;;;;;;;5.51;86.05;95421.59;1815896;79;21002;-68
2022/09/20 03:33:57;;;;;;;4.07;1.50;;;;;;;5.50;85.81;95419.42;1815948;79;20989;-68
2022/09/20 03:36:50;;;;;;;2.27;1.75;;;;;;;5.46;85.58;95424.66;1815981;79;21049;-69
2022/09/20 03:39:53;;;;;;;2.67;1.85;;;;;;;5.54;86.18;95419.83;1815538;79;21113;-69
2022/09/20 03:42:27;;;;;;;2.25;2.05;;;;;;;5.52;85.75;95424.22;1816159;79;20958;-69
2022/09/20 03:45:29;;;;;;;5.23;2.00;;;;;;;5.46;85.55;95428.14;1816033;79;21097;-69
2022/09/20 03:48:16;;;;;;;2.20;2.00;;;;;;;5.43;85.52;95422.91;1816056;79;20950;-69
2022/09/20 03:51:12;;;;;;;2.00;1.60;;;;;;;5.46;86.08;95428.14;1815711;79;20991;-69
2022/09/20 03:54:16;;;;;;;4.23;1.90;;;;;;;5.41;86.11;95430.75;1815419;79;20966;-69
2022/09/20 03:57:06;;;;;;;2.00;1.70;;;;;;;5.37;86.34;95423.80;1815861;79;21049;-69
2022/09/20 03:59:57;;;;;;;3.27;2.30;;;;;;;5.43;86.81;95423.78;1815781;79;21182;-70
2022/09/20 04:02:38;;;;;;;3.40;2.00;;;;;;;5.46;86.20;95426.83;1815986;79;21034;-76
2022/09/20 04:05:09;;;;;;;4.93;3.90;;;;;;;5.45;86.41;95422.92;1816174;79;21006;-78
2022/09/20 04:08:14;;;;;;;5.47;3.57;;;;;;;5.48;86.98;95422.47;1791026;79;21032;-74
2022/09/20 04:11:05;;;;;;;4.67;3.53;;;;;;;5.63;87.46;95425.05;1815739;79;20997;-80
2022/09/20 04:13:52;;;;;;;2.93;2.40;;;;;;;5.75;87.40;95422.86;1816331;79;21028;-81
2022/09/20 04:16:51;;;;;;;4.83;3.00;;;;;;;5.77;86.68;95425.45;1815106;79;20997;-80
2022/09/20 04:19:40;;;;;;;8.40;6.33;;;;;;;5.70;86.36;95424.61;1815953;79;21017;-80
2022/09/20 04:22:08;;;;;;;7.27;5.90;;;;;;;5.59;86.23;95427.67;1815972;79;21033;-80
2022/09/20 04:24:58;;;;;;;62.50;31.33;;;;;;;5.37;85.39;95430.34;1815976;79;21427;-80
2022/09/20 04:27:41;;;;;;;13.83;10.70;;;;;;;5.29;85.52;95437.75;1815626;79;21558;-80
2022/09/20 04:30:28;;;;;;;11.05;8.03;;;;;;;5.19;85.79;95435.16;1803243;79;21014;-79
2022/09/20 04:33:09;;;;;;;20.50;15.60;;;;;;;5.21;86.56;95445.16;1816205;79;20965;-80
2022/09/20 04:38:51;;;;;;;23.20;15.57;;;;;;;5.14;86.69;95445.16;1816129;79;20997;-80
2022/09/20 04:41:48;;;;;;;14.47;10.13;;;;;;;5.05;87.35;95443.42;1815573;79;21001;-81
2022/09/20 04:44:38;;;;;;;15.53;11.13;;;;;;;5.02;86.69;95445.19;1815791;79;21029;-80
2022/09/20 04:47:48;;;;;;;68.07;41.63;;;;;;;4.85;86.02;95453.88;1814901;79;21021;-80
2022/09/20 04:50:53;;;;;;;13.87;10.90;;;;;;;4.73;86.23;95449.48;1815823;79;21025;-76
2022/09/20 04:54:02;;;;;;;8.23;6.80;;;;;;;4.69;86.39;95457.34;1814442;79;20985;-77
2022/09/20 04:57:09;;;;;;;19.87;13.43;;;;;;;4.65;86.33;95453.83;1815793;79;21001;-78
2022/09/20 05:00:03;;;;;;;16.23;10.27;;;;;;;4.61;86.70;95457.33;1815546;79;21005;-75
2022/09/20 05:03:10;;;;;;;10.43;6.72;;;;;;;4.57;87.16;95463.41;1815778;79;21021;-72
2022/09/20 05:06:15;;;;;;;13.53;8.67;;;;;;;4.45;86.98;95465.98;1816262;79;20962;-69
2022/09/20 05:09:14;;;;;;;13.23;7.17;;;;;;;4.50;87.26;95469.48;1814156;79;21511;-77
2022/09/20 05:11:46;;;;;;;22.03;11.47;;;;;;;4.59;87.64;95471.27;1815735;79;21436;-81
2022/09/20 05:14:41;;;;;;;13.57;7.87;;;;;;;4.62;87.19;95475.18;1816091;79;20984;-75
2022/09/20 05:17:37;;;;;;;15.33;8.23;;;;;;;4.59;87.02;95468.21;1815611;79;21101;-73
2022/09/20 05:20:33;;;;;;;7.07;4.57;;;;;;;4.55;87.38;95472.53;1816186;79;20989;-81
2022/09/20 05:23:37;;;;;;;19.70;11.33;;;;;;;4.57;87.74;95469.94;1814798;79;21013;-76
2022/09/20 05:26:26;;;;;;;;;;;;;;;4.62;87.44;95476.05;1817863;79;20962;-74
2022/09/20 05:29:13;;;;;;;10.90;7.70;;;;;;;4.61;87.41;95476.93;1810238;79;20103;-73
2022/09/20 05:31:45;;;;;;;8.10;5.40;;;;;;;4.65;87.62;95479.97;1809856;79;21006;-75
2022/09/20 05:34:33;;;;;;;5.37;4.00;;;;;;;4.78;87.93;95478.25;1809871;79;21052;-73
2022/09/20 05:37:29;;;;;;;5.60;4.80;;;;;;;4.85;87.40;95479.14;1812943;78;21629;-75
2022/09/20 05:40:07;;;;;;;7.93;5.93;;;;;;;4.95;87.76;95478.28;1798158;78;21041;-81
2022/09/20 05:42:45;;;;;;;4.83;3.10;;;;;;;5.11;87.78;95476.11;1806575;78;21595;-73
2022/09/20 05:45:27;;;;;;;3.77;3.37;;;;;;;5.30;87.92;95468.28;1819501;78;21013;-79
2022/09/20 05:48:31;;;;;;;3.93;2.73;;;;;;;5.50;88.10;95470.89;1821087;78;21096;-73
2022/09/20 05:51:14;;;;;;;3.02;2.35;;;;;;;5.73;88.23;95467.80;1826119;78;20994;-84
2022/09/20 05:53:58;;;;;;;4.47;2.87;;;;;;;5.96;88.17;95473.00;1825194;78;21468;-79
2022/09/20 05:56:52;;;;;;;4.40;3.30;;;;;;;6.19;88.20;95477.30;1826189;78;21491;-79
2022/09/20 05:59:33;;;;;;;8.03;3.30;;;;;;;6.39;87.69;95468.92;1823363;78;21037;-70
2022/09/20 06:02:47;;;;;;;4.27;3.10;;;;;;;6.60;87.68;95467.97;1825890;78;21511;-77
2022/09/20 06:05:41;;;;;;;3.20;2.83;;;;;;;6.79;87.47;95469.16;1826003;78;21049;-74
2022/09/20 06:08:45;;;;;;;;;;;;;;;6.97;86.63;95470.80;1828452;78;21060;-71
2022/09/20 06:11:25;;;;;;;;;;;;;;;7.11;86.42;95465.89;1828506;78;20133;-68
2022/09/20 06:14:49;;;;;;;4.03;2.63;;;;;;;7.27;86.57;95461.38;1825751;78;20121;-66
2022/09/20 06:17:33;;;;;;;4.47;3.20;;;;;;;7.42;86.57;95459.53;1826333;78;21006;-73
2022/09/20 06:20:27;;;;;;;7.37;3.60;;;;;;;7.61;85.09;95455.86;1825871;78;21014;-73
2022/09/20 06:22:58;;;;;;;7.65;2.95;;;;;;;7.69;85.00;95459.73;1824942;78;21053;-70
2022/09/20 06:25:56;;;;;;;3.93;2.80;;;;;;;7.74;85.39;95461.87;1825646;78;21484;-71
2022/09/20 06:28:27;;;;;;;10.57;5.10;;;;;;;7.80;85.15;95461.80;1825769;78;21006;-79
2022/09/20 06:30:56;;;;;;;9.07;4.73;;;;;;;7.88;84.66;95470.91;1825967;78;20971;-75
2022/09/20 06:33:25;;;;;;;10.50;7.50;;;;;;;7.89;84.28;95466.97;1825945;78;21022;-81
2022/09/20 06:35:57;;;;;;;57.10;30.60;;;;;;;7.93;84.38;95463.41;1825875;78;21030;-71
2022/09/20 06:41:33;;;;;;;35.23;25.10;;;;;;;7.98;83.81;95464.67;1825703;78;21082;-81
2022/09/20 06:44:04;;;;;;;39.90;30.53;;;;;;;7.91;83.43;95456.00;1826403;78;20993;-81
2022/09/20 06:46:33;;;;;;;25.57;21.07;;;;;;;7.90;83.54;95456.88;1826066;78;20998;-75
2022/09/20 06:49:01;;;;;;;9.57;7.07;;;;;;;7.91;83.48;95465.61;1825989;78;21010;-76
2022/09/20 06:51:35;;;;;;;8.07;4.10;;;;;;;7.99;83.73;95468.61;1820851;78;21053;-71
2022/09/20 06:54:04;;;;;;;4.70;2.50;;;;;;;8.18;82.72;95465.77;1825055;78;21488;-77
2022/09/20 06:56:35;;;;;;;4.93;2.73;;;;;;;8.38;83.58;95465.54;1824593;78;20958;-71
2022/09/20 06:59:09;;;;;;;4.77;2.57;;;;;;;8.52;83.32;95461.47;1826354;78;20982;-71
2022/09/20 07:01:32;;;;;;;3.27;2.37;;;;;;;8.65;82.98;95470.48;1825840;78;21049;-74
2022/09/20 07:04:00;;;;;;;2.10;1.60;;;;;;;8.84;83.13;95472.44;1825900;78;21484;-74
2022/09/20 07:06:28;;;;;;;2.63;1.97;;;;;;;8.93;82.08;95467.93;1824608;78;22259;-71
2022/09/20 07:08:54;;;;;;;3.23;1.70;;;;;;;9.00;81.86;95477.03;1824741;78;21178;-70
2022/09/20 07:11:22;;;;;;;1.20;1.10;;;;;;;9.10;81.57;95469.42;1808258;78;21031;-68
2022/09/20 07:14:01;;;;;;;1.37;1.27;;;;;;;9.14;80.55;95472.86;1799043;80;21115;-69
2022/09/20 07:16:25;;;;;;;1.57;1.37;;;;;;;9.17;79.25;95470.62;1797749;80;21048;-74
2022/09/20 07:18:52;;;;;;;3.83;0.88;;;;;;;9.19;79.48;95478.92;1798880;80;21063;-72
2022/09/20 07:21:20;;;;;;;3.15;1.42;;;;;;;9.23;79.67;95479.77;1799184;80;20999;-73
2022/09/20 07:23:47;;;;;;;1.98;1.20;;;;;;;9.27;79.61;95482.34;1799141;80;20952;-71
2022/09/20 07:26:23;;;;;;;6.37;2.37;;;;;;;9.37;79.28;95485.67;1796546;78;20952;-73
2022/09/20 07:28:50;;;;;;;2.55;1.40;;;;;;;9.42;79.16;95482.97;1798237;79;21082;-71
2022/09/20 07:31:23;;;;;;;2.02;1.30;;;;;;;9.52;79.28;95481.92;1798820;79;21534;-71
2022/09/20 07:33:49;;;;;;;;;;;;;;;9.69;79.36;95482.97;1801303;80;21552;-73
2022/09/20 07:36:17;;;;;;;1.72;1.22;;;;;;;9.85;79.37;95481.83;1798224;79;20134;-72
2022/09/20 07:38:50;;;;;;;2.62;2.42;;;;;;;9.99;78.85;95488.61;1797975;79;21048;-70
2022/09/20 07:41:19;;;;;;;6.50;2.85;;;;;;;10.10;78.23;95486.63;1798845;80;21075;-71
2022/09/20 07:43:46;;;;;;;2.65;2.37;;;;;;;10.43;76.22;95482.51;1798699;79;20967;-73
2022/09/20 07:46:12;;;;;;;2.25;0.93;;;;;;;10.63;77.15;95486.52;1798434;80;21010;-70
2022/09/20 07:48:40;;;;;;;0.60;0.60;;;;;;;10.80;73.94;95486.59;1798259;80;21108;-70
2022/09/20 07:51:12;;;;;;;2.55;1.40;;;;;;;10.70;68.06;95485.05;1798639;79;21484;-71
2022/09/20 07:53:40;;;;;;;1.10;0.80;;;;;;;10.58;69.55;95486.19;1798564;79;20955;-71
2022/09/20 07:56:13;;;;;;;2.67;2.42;;;;;;;10.62;70.92;95490.94;1798750;79;21041;-70
2022/09/20 07:58:41;;;;;;;0.70;0.70;;;;;;;10.69;71.29;95487.28;1798458;79;21456;-70
2022/09/20 08:01:12;;;;;;;45.05;21.95;;;;;;;10.59;69.80;95494.97;1798673;80;21010;-71
2022/09/20 08:03:39;;;;;;;11.78;8.08;;;;;;;10.39;67.62;95495.36;1798819;79;21502;-70
2022/09/20 08:06:09;;;;;;;11.93;10.72;;;;;;;10.26;68.89;95498.65;1799033;79;20994;-70
2022/09/20 08:08:42;;;;;;;176.43;126.27;;;;;;;10.40;70.24;95489.17;1758993;81;21447;-68
2022/09/20 08:11:13;;;;;;;5.90;5.30;;;;;;;10.65;71.16;95493.51;1742943;82;21028;-70
2022/09/20 08:13:44;;;;;;;2.72;2.42;;;;;;;10.86;70.38;95496.59;1742475;82;21083;-70
2022/09/20 08:16:15;;;;;;;2.27;0.70;;;;;;;11.11;70.01;95490.33;1742569;82;21063;-70
2022/09/20 08:18:54;;;;;;;0.55;0.55;;;;;;;11.38;69.77;95480.91;1742524;82;20991;-70
2022/09/20 08:21:21;;;;;;;0.62;0.62;;;;;;;11.60;63.67;95482.14;1734904;81;21510;-68
2022/09/20 08:23:47;;;;;;;0.70;0.70;;;;;;;11.50;62.49;95484.59;1743644;82;20985;-69
2022/09/20 08:26:18;;;;;;;6.42;3.83;;;;;;;11.70;65.28;95490.26;1743315;82;21058;-69
2022/09/20 08:28:48;;;;;;;2.42;1.80;;;;;;;11.93;62.35;95486.20;1771004;81;20979;-70
2022/09/20 08:31:20;;;;;;;1.92;1.55;;;;;;;12.15;65.66;95486.98;1788257;80;21038;-70
2022/09/20 08:33:49;;;;;;;1.27;0.40;;;;;;;12.36;62.97;95496.11;1787695;80;21010;-75
2022/09/20 08:36:21;;;;;;;0.88;0.88;;;;;;;12.24;59.29;95495.98;1787984;80;21034;-70
2022/09/20 08:38:48;;;;;;;1.85;1.22;;;;;;;12.29;61.57;95485.67;1786925;80;21069;-74
2022/09/20 08:41:34;;;;;;;0.98;0.95;;;;;;;12.24;58.72;95492.01;1787977;80;21133;-73
2022/09/20 08:44:15;;;;;;;2.35;1.50;;;;;;;12.33;58.94;95483.84;1782467;80;21033;-75
2022/09/20 08:46:49;;;;;;;3.02;2.72;;;;;;;12.37;59.43;95476.20;1788064;80;21504;-71
2022/09/20 08:49:27;;;;;;;0.93;0.90;;;;;;;12.41;57.33;95481.84;1786669;80;21015;-75
2022/09/20 08:51:57;;;;;;;0.60;0.53;;;;;;;12.38;56.89;95481.93;1788320;80;21548;-75
2022/09/20 08:54:32;;;;;;;1.00;0.80;;;;;;;12.37;58.21;95467.41;1788603;80;21006;-72
2022/09/20 08:57:05;;;;;;;0.70;0.70;;;;;;;12.72;59.27;95479.19;1760741;80;21029;-70
2022/09/20 08:59:33;;;;;;;0.40;0.40;;;;;;;13.13;58.24;95477.58;1788412;80;21006;-71
2022/09/20 09:02:00;;;;;;;0.50;0.50;;;;;;;13.28;57.10;95468.30;1788111;80;21070;-70
2022/09/20 09:04:35;;;;;;;0.40;0.40;;;;;;;13.36;58.58;95465.84;1787449;80;21509;-70
2022/09/20 09:07:03;;;;;;;0.70;0.70;;;;;;;13.29;54.79;95483.30;1761929;80;21025;-70
2022/09/20 09:09:31;;;;;;;0.57;0.50;;;;;;;13.17;56.21;95471.25;1738807;82;21157;-72
2022/09/20 09:11:58;;;;;;;22.98;11.40;;;;;;;13.37;56.91;95474.64;1719358;82;21594;-71
2022/09/20 09:14:47;;;;;;;33.02;15.98;;;;;;;13.15;56.79;95479.70;1739790;82;21038;-72
2022/09/20 09:17:23;;;;;;;1.65;1.55;;;;;;;13.13;59.33;95478.44;1739720;82;21062;-70
2022/09/20 09:20:00;;;;;;;0.80;0.60;;;;;;;13.24;59.59;95491.81;1739737;82;21077;-72
2022/09/20 09:22:41;;;;;;;0.50;0.50;;;;;;;13.16;57.95;95487.61;1721693;82;21622;-73
2022/09/20 09:25:34;;;;;;;0.60;0.60;;;;;;;13.07;57.80;95493.64;1739895;82;21010;-72
2022/09/20 09:28:09;;;;;;;1.20;0.60;;;;;;;13.02;56.86;95491.59;1717353;83;21183;-72
2022/09/20 09:30:42;;;;;;;0.78;0.57;;;;;;;13.10;58.68;95492.22;1724847;83;21085;-72
2022/09/20 09:33:30;;;;;;;0.70;0.68;;;;;;;13.14;58.80;95487.25;1740626;82;21045;-72
2022/09/20 09:36:17;;;;;;;0.75;0.70;;;;;;;13.03;59.05;95496.85;1757166;82;21061;-72
2022/09/20 09:38:46;;;;;;;1.62;0.70;;;;;;;13.03;59.05;95496.85;1755131;82;20990;-72
2022/09/20 09:41:26;;;;;;;2.92;0.60;;;;;;;12.85;60.04;95505.31;1756919;82;21576;-71
2022/09/20 09:44:10;;;;;;;2.00;0.65;;;;;;;12.58;60.14;95502.55;1740317;82;21018;-72
2022/09/20 09:46:38;;;;;;;;;;;;;;;12.28;60.30;95511.73;1740435;82;21039;-72
2022/09/20 09:49:14;;;;;;;0.78;0.60;;;;;;;12.01;60.80;95507.16;1740628;82;20448;-72
2022/09/20 09:52:02;;;;;;;2.15;2.05;;;;;;;11.70;60.83;95515.37;1756585;82;21035;-71
2022/09/20 09:54:36;;;;;;;0.90;0.90;;;;;;;11.56;62.73;95516.59;1757218;81;21053;-72
2022/09/20 09:57:37;;;;;;;0.62;0.62;;;;;;;11.65;61.87;95519.03;1757369;82;20991;-72
2022/09/20 10:00:16;;;;;;;1.62;0.75;;;;;;;11.74;63.27;95516.61;1757124;81;21026;-72
2022/09/20 10:03:18;;;;;;;0.78;0.70;;;;;;;11.86;62.71;95513.67;1757285;81;21512;-72
2022/09/20 10:06:29;;;;;;;0.57;0.57;;;;;;;12.02;62.01;95516.81;1757282;82;21046;-72
2022/09/20 10:09:17;;;;;;;0.70;0.70;;;;;;;12.06;59.41;95520.67;1756827;82;21069;-72
2022/09/20 10:12:01;;;;;;;1.15;0.70;;;;;;;12.07;60.38;95521.53;1757103;82;21504;-71
2022/09/20 10:14:42;;;;;;;0.70;0.70;;;;;;;11.86;59.65;95517.63;1757481;82;21473;-71
2022/09/20 10:18:02;;;;;;;0.88;0.88;;;;;;;11.84;61.94;95522.08;1757266;82;21591;-72
2022/09/20 10:20:54;;;;;;;0.75;0.60;;;;;;;11.98;62.86;95521.33;1756726;82;21078;-71
2022/09/20 10:23:41;;;;;;;0.78;0.60;;;;;;;12.00;61.96;95523.95;1757375;81;20963;-72
2022/09/20 10:26:28;;;;;;;0.75;0.70;;;;;;;12.04;60.66;95521.62;1755553;82;21019;-72
2022/09/20 10:29:14;;;;;;;0.65;0.65;;;;;;;12.06;61.77;95526.42;1748746;81;21170;-72
2022/09/20 10:32:02;;;;;;;0.82;0.78;;;;;;;12.04;61.31;95522.48;1743388;82;21026;-72
2022/09/20 10:34:46;;;;;;;0.75;0.60;;;;;;;12.06;62.04;95523.78;1730100;82;20970;-72
2022/09/20 10:37:47;;;;;;;0.70;0.70;;;;;;;12.04;62.26;95529.09;1743823;81;21034;-72
2022/09/20 10:43:13;;;;;;;3.22;0.65;;;;;;;12.02;62.07;95530.04;1743424;82;20967;-72
2022/09/20 10:43:15;;;;;;;1.77;0.70;;;;;;;11.95;62.34;95541.70;1741068;82;21050;-72
2022/09/20 10:45:48;;;;;;;1.47;0.60;;;;;;;11.85;62.19;95537.06;1743729;81;20982;-72
2022/09/20 10:48:27;;;;;;;0.70;0.62;;;;;;;11.64;61.18;95540.64;1743652;81;21007;-72
2022/09/20 10:51:03;;;;;;;0.62;0.62;;;;;;;11.53;61.99;95537.36;1743624;82;21018;-71
2022/09/20 10:54:01;;;;;;;0.93;0.60;;;;;;;11.43;61.36;95541.12;1743608;81;20975;-72
2022/09/20 10:56:48;;;;;;;0.60;0.60;;;;;;;11.21;62.59;95542.04;1743595;82;21030;-72
2022/09/20 10:59:27;;;;;;;0.50;0.50;;;;;;;11.02;63.33;95549.50;1743723;82;21034;-72
2022/09/20 11:02:07;;;;;;;0.82;0.75;;;;;;;11.00;64.11;95548.20;1743293;81;21022;-72
2022/09/20 11:04:58;;;;;;;0.70;0.60;;;;;;;11.00;64.40;95556.13;1743208;82;21006;-73
2022/09/20 11:07:45;;;;;;;0.57;0.57;;;;;;;10.93;64.15;95557.14;1743670;81;21022;-73
2022/09/20 11:10:28;;;;;;;0.55;0.53;;;;;;;10.98;65.07;95563.20;1742447;82;21546;-72
2022/09/20 11:13:07;;;;;;;0.60;0.60;;;;;;;10.82;64.49;95562.66;1743713;82;21050;-73
2022/09/20 11:15:45;;;;;;;0.72;0.60;;;;;;;10.62;64.33;95560.86;1743289;82;21591;-73
2022/09/20 11:18:22;;;;;;;1.22;0.72;;;;;;;10.61;65.49;95565.73;1743846;81;21002;-73
2022/09/20 11:21:00;;;;;;;0.95;0.80;;;;;;;10.69;65.74;95565.58;1743596;82;21026;-73
2022/09/20 11:24:01;;;;;;;0.80;0.50;;;;;;;10.72;65.74;95566.83;1743415;81;21014;-73
2022/09/20 11:26:42;;;;;;;1.00;0.72;;;;;;;10.73;65.26;95567.23;1743291;82;21574;-73
2022/09/20 11:29:36;;;;;;;1.00;0.62;;;;;;;10.63;65.31;95563.91;1735088;81;21031;-72
2022/09/20 11:32:20;;;;;;;0.60;0.60;;;;;;;10.50;65.53;95565.05;1730377;82;21027;-73
2022/09/20 11:34:54;;;;;;;1.02;0.68;;;;;;;10.48;65.81;95562.45;1730283;82;21516;-73
2022/09/20 11:37:24;;;;;;;1.32;0.85;;;;;;;10.51;66.10;95559.75;1730251;82;21039;-73
2022/09/20 11:39:54;;;;;;;0.80;0.70;;;;;;;10.58;65.71;95557.42;1730330;82;21469;-73
2022/09/20 11:42:28;;;;;;;1.75;0.88;;;;;;;10.70;65.15;95554.97;1730447;82;21024;-74
2022/09/20 11:44:55;;;;;;;0.95;0.68;;;;;;;10.86;65.25;95554.66;1730141;83;21023;-73
2022/09/20 11:47:45;;;;;;;1.30;0.90;;;;;;;11.03;64.52;95557.83;1730029;83;21138;-73
2022/09/20 11:50:44;;;;;;;14.87;6.53;;;;;;;11.03;63.94;95553.41;1690620;84;21020;-73
2022/09/20 11:53:47;;;;;;;2.85;1.37;;;;;;;11.16;64.37;95558.44;1746798;82;21022;-72
2022/09/20 11:56:23;;;;;;;2.08;0.80;;;;;;;11.17;63.33;95553.13;1719976;83;21010;-73
2022/09/20 11:58:55;;;;;;;1.22;0.90;;;;;;;11.34;63.86;95555.84;1750842;82;21021;-73
2022/09/20 12:01:33;;;;;;;1.00;0.80;;;;;;;11.46;62.80;95547.65;1719658;83;21046;-72
2022/09/20 12:04:05;;;;;;;1.55;0.90;;;;;;;11.67;61.87;95545.84;1750759;82;21019;-72
2022/09/20 12:06:35;;;;;;;1.12;1.02;;;;;;;11.80;62.64;95545.55;1705719;83;21010;-72
2022/09/20 12:09:07;;;;;;;0.93;0.90;;;;;;;11.96;62.03;95546.07;1750880;82;21515;-72
2022/09/20 12:11:40;;;;;;;1.05;0.70;;;;;;;11.98;61.40;95544.27;1719830;83;21508;-72
2022/09/20 12:14:25;;;;;;;1.50;1.27;;;;;;;12.06;61.80;95543.61;1751029;82;21085;-72
2022/09/20 12:16:51;;;;;;;1.10;0.90;;;;;;;12.07;61.55;95543.59;1718794;83;21018;-70
2022/09/20 12:19:35;;;;;;;4.95;4.55;;;;;;;12.08;62.26;95535.19;1729979;82;21058;-70
2022/09/20 12:22:07;;;;;;;0.90;0.90;;;;;;;12.17;62.40;95540.26;1719611;83;21615;-70
2022/09/20 12:24:40;;;;;;;1.57;1.00;;;;;;;12.25;62.95;95541.38;1750665;82;20983;-70
2022/09/20 12:27:32;;;;;;;2.20;2.07;;;;;;;12.30;63.03;95546.09;1699973;83;21127;-70
2022/09/20 12:30:18;;;;;;;2.95;2.65;;;;;;;12.21;60.40;95540.57;1762011;81;21763;-70
2022/09/20 12:32:50;;;;;;;1.22;0.68;;;;;;;12.01;60.95;95537.11;1732537;83;21511;-69
2022/09/20 12:35:44;;;;;;;1.77;1.10;;;;;;;11.90;61.30;95541.35;1764625;81;21506;-70
2022/09/20 12:38:32;;;;;;;2.95;1.35;;;;;;;11.79;60.95;95533.22;1732458;83;21527;-70
2022/09/20 12:41:15;;;;;;;7.00;1.85;;;;;;;11.81;63.37;95539.34;1764538;81;21033;-70
2022/09/20 12:44:05;;;;;;;2.62;1.67;;;;;;;11.86;63.63;95541.42;1732098;83;21032;-69
2022/09/20 12:46:37;;;;;;;3.75;1.40;;;;;;;11.89;63.58;95545.34;1764150;81;21061;-70
2022/09/20 12:52:55;;;;;;;1.27;0.90;;;;;;;11.83;63.61;95546.34;1731289;83;21034;-70
2022/09/20 12:55:44;;;;;;;0.80;0.80;;;;;;;11.81;64.75;95547.28;1732803;83;21009;-72
2022/09/20 12:58:16;;;;;;;1.20;0.98;;;;;;;11.81;64.46;95545.95;1764752;81;21073;-73
2022/09/20 13:01:06;;;;;;;1.10;1.00;;;;;;;11.81;64.49;95548.14;1733048;82;21018;-72